Portada
METAR-TAF:

METAR-TAF

Aeroports :

Bandar Lengeh, Iran

latitud: 26-35N, longitud: 054-50E, altitud: 14 m

Observació

L'informe es va fer fa 55 minuts, a les 16:00 UTC
Vent 6 kt del Nord
Temperatura 21°C
Humitat 78%
Pressió 1017 hPa
Visibilitat: 6000 m
Núvols disperses a una alçada de 2500 ft, Cumulonimbus.
Cel cobert a una alçada de 9000 ft

METAR: OIBL 181600Z 01006KT 6000 SCT025CB OVC090 21/17 Q1017

Hora: 20:25 (16:55 UTC)


TAF: manca

Observacions i pronòstics meteorològics de més de 4000 aeroports (METAR i TAF).

Les estacions disponibles són els punts grocs i vermells al mapa.

Posi el ratolí al punt desitjat per veure el nom de l'estació.

Feu clic per veure les observacions i els pronòstics meteorològics.

Per canviar el mapa: feu clic els botons verds amb una creu de color negre per apropar; al botó verd amb un guió per allunyar la imatge; o en les fletxes verdes per a mapes adjacents.


METAR-TAF: